sensor_id;sensor_type;location;lat;lon;timestamp;P1;durP1;ratioP1;P2;durP2;ratioP2
14209;SDS011;7188;56.070;12.698;2023-03-03T00:02:03;15.67;;;10.33;;
14209;SDS011;7188;56.070;12.698;2023-03-03T00:04:29;17.97;;;11.37;;
14209;SDS011;7188;56.070;12.698;2023-03-03T00:06:55;19.60;;;12.00;;
14209;SDS011;7188;56.070;12.698;2023-03-03T00:09:20;21.30;;;11.77;;
14209;SDS011;7188;56.070;12.698;2023-03-03T00:11:47;17.70;;;11.77;;
14209;SDS011;7188;56.070;12.698;2023-03-03T00:14:23;18.13;;;12.10;;
14209;SDS011;7188;56.070;12.698;2023-03-03T00:16:51;22.57;;;11.63;;
14209;SDS011;7188;56.070;12.698;2023-03-03T00:19:17;16.10;;;10.97;;
14209;SDS011;7188;56.070;12.698;2023-03-03T00:21:46;15.40;;;10.33;;
14209;SDS011;7188;56.070;12.698;2023-03-03T00:27:16;16.27;;;10.23;;
14209;SDS011;7188;56.070;12.698;2023-03-03T00:29:58;14.00;;;8.90;;
14209;SDS011;7188;56.070;12.698;2023-03-03T00:32:26;18.47;;;11.67;;
14209;SDS011;7188;56.070;12.698;2023-03-03T00:34:57;25.57;;;12.13;;
14209;SDS011;7188;56.070;12.698;2023-03-03T00:37:41;15.77;;;10.53;;
14209;SDS011;7188;56.070;12.698;2023-03-03T00:42:39;17.00;;;11.07;;
14209;SDS011;7188;56.070;12.698;2023-03-03T00:47:52;18.80;;;11.57;;
14209;SDS011;7188;56.070;12.698;2023-03-03T00:50:33;20.03;;;12.50;;
14209;SDS011;7188;56.070;12.698;2023-03-03T00:53:03;20.77;;;12.33;;
14209;SDS011;7188;56.070;12.698;2023-03-03T00:55:43;19.40;;;12.57;;
14209;SDS011;7188;56.070;12.698;2023-03-03T00:58:10;18.07;;;12.47;;
14209;SDS011;7188;56.070;12.698;2023-03-03T01:00:37;21.13;;;13.53;;
14209;SDS011;7188;56.070;12.698;2023-03-03T01:03:05;22.33;;;12.73;;
14209;SDS011;7188;56.070;12.698;2023-03-03T01:05:32;20.03;;;12.97;;
14209;SDS011;7188;56.070;12.698;2023-03-03T01:07:58;19.67;;;13.73;;
14209;SDS011;7188;56.070;12.698;2023-03-03T01:10:25;23.00;;;12.50;;
14209;SDS011;7188;56.070;12.698;2023-03-03T01:12:54;16.60;;;10.37;;
14209;SDS011;7188;56.070;12.698;2023-03-03T01:15:21;17.97;;;10.20;;
14209;SDS011;7188;56.070;12.698;2023-03-03T01:17:48;18.40;;;11.83;;
14209;SDS011;7188;56.070;12.698;2023-03-03T01:20:14;16.97;;;11.50;;
14209;SDS011;7188;56.070;12.698;2023-03-03T01:22:40;23.17;;;14.20;;
14209;SDS011;7188;56.070;12.698;2023-03-03T01:25:06;22.30;;;14.03;;
14209;SDS011;7188;56.070;12.698;2023-03-03T01:27:36;19.10;;;12.03;;
14209;SDS011;7188;56.070;12.698;2023-03-03T01:30:03;26.33;;;13.23;;
14209;SDS011;7188;56.070;12.698;2023-03-03T01:32:30;21.90;;;12.33;;
14209;SDS011;7188;56.070;12.698;2023-03-03T01:34:56;19.90;;;12.33;;
14209;SDS011;7188;56.070;12.698;2023-03-03T01:37:22;20.63;;;12.70;;
14209;SDS011;7188;56.070;12.698;2023-03-03T01:39:51;27.70;;;15.03;;
14209;SDS011;7188;56.070;12.698;2023-03-03T01:42:18;22.37;;;12.23;;
14209;SDS011;7188;56.070;12.698;2023-03-03T01:44:45;24.10;;;13.30;;
14209;SDS011;7188;56.070;12.698;2023-03-03T01:47:14;30.60;;;15.30;;
14209;SDS011;7188;56.070;12.698;2023-03-03T01:49:49;18.40;;;11.37;;
14209;SDS011;7188;56.070;12.698;2023-03-03T01:52:33;18.40;;;11.37;;
14209;SDS011;7188;56.070;12.698;2023-03-03T01:55:11;21.40;;;12.93;;
14209;SDS011;7188;56.070;12.698;2023-03-03T01:57:47;19.73;;;11.67;;
14209;SDS011;7188;56.070;12.698;2023-03-03T02:00:29;21.83;;;13.30;;
14209;SDS011;7188;56.070;12.698;2023-03-03T02:02:59;18.70;;;11.00;;
14209;SDS011;7188;56.070;12.698;2023-03-03T02:05:26;22.63;;;12.23;;
14209;SDS011;7188;56.070;12.698;2023-03-03T02:07:52;19.70;;;11.77;;
14209;SDS011;7188;56.070;12.698;2023-03-03T02:10:18;22.73;;;12.47;;
14209;SDS011;7188;56.070;12.698;2023-03-03T02:17:56;22.07;;;12.20;;
14209;SDS011;7188;56.070;12.698;2023-03-03T02:22:57;20.87;;;12.17;;
14209;SDS011;7188;56.070;12.698;2023-03-03T02:25:29;18.40;;;12.60;;
14209;SDS011;7188;56.070;12.698;2023-03-03T02:28:04;22.60;;;12.23;;
14209;SDS011;7188;56.070;12.698;2023-03-03T02:30:30;22.43;;;12.50;;
14209;SDS011;7188;56.070;12.698;2023-03-03T02:33:01;22.67;;;12.70;;
14209;SDS011;7188;56.070;12.698;2023-03-03T02:35:29;21.97;;;13.23;;
14209;SDS011;7188;56.070;12.698;2023-03-03T02:44:04;20.17;;;11.63;;
14209;SDS011;7188;56.070;12.698;2023-03-03T02:46:38;18.20;;;11.80;;
14209;SDS011;7188;56.070;12.698;2023-03-03T02:49:06;21.13;;;11.50;;
14209;SDS011;7188;56.070;12.698;2023-03-03T02:51:33;20.80;;;12.57;;
14209;SDS011;7188;56.070;12.698;2023-03-03T02:53:59;21.63;;;13.47;;
14209;SDS011;7188;56.070;12.698;2023-03-03T02:56:25;24.07;;;13.47;;
14209;SDS011;7188;56.070;12.698;2023-03-03T02:58:51;22.40;;;13.40;;
14209;SDS011;7188;56.070;12.698;2023-03-03T03:01:17;23.30;;;13.93;;
14209;SDS011;7188;56.070;12.698;2023-03-03T03:03:43;21.80;;;13.57;;
14209;SDS011;7188;56.070;12.698;2023-03-03T03:06:09;27.80;;;14.50;;
14209;SDS011;7188;56.070;12.698;2023-03-03T03:08:35;22.70;;;13.30;;
14209;SDS011;7188;56.070;12.698;2023-03-03T03:11:01;28.30;;;14.97;;
14209;SDS011;7188;56.070;12.698;2023-03-03T03:13:27;23.93;;;14.33;;
14209;SDS011;7188;56.070;12.698;2023-03-03T03:15:58;24.67;;;13.73;;
14209;SDS011;7188;56.070;12.698;2023-03-03T03:18:25;24.67;;;13.73;;
14209;SDS011;7188;56.070;12.698;2023-03-03T03:20:51;26.00;;;13.63;;
14209;SDS011;7188;56.070;12.698;2023-03-03T03:23:17;26.37;;;14.17;;
14209;SDS011;7188;56.070;12.698;2023-03-03T03:25:43;23.30;;;13.57;;
14209;SDS011;7188;56.070;12.698;2023-03-03T03:28:14;24.67;;;12.70;;
14209;SDS011;7188;56.070;12.698;2023-03-03T03:30:41;19.93;;;12.80;;
14209;SDS011;7188;56.070;12.698;2023-03-03T03:33:08;20.87;;;12.53;;
14209;SDS011;7188;56.070;12.698;2023-03-03T03:35:34;21.13;;;12.43;;
14209;SDS011;7188;56.070;12.698;2023-03-03T03:38:01;23.80;;;12.53;;
14209;SDS011;7188;56.070;12.698;2023-03-03T03:40:27;23.83;;;12.37;;
14209;SDS011;7188;56.070;12.698;2023-03-03T03:42:53;24.37;;;12.33;;
14209;SDS011;7188;56.070;12.698;2023-03-03T03:45:19;22.07;;;12.67;;
14209;SDS011;7188;56.070;12.698;2023-03-03T03:47:45;21.47;;;11.67;;
14209;SDS011;7188;56.070;12.698;2023-03-03T03:50:11;20.17;;;11.43;;
14209;SDS011;7188;56.070;12.698;2023-03-03T03:52:37;22.67;;;12.40;;
14209;SDS011;7188;56.070;12.698;2023-03-03T03:55:03;19.40;;;12.10;;
14209;SDS011;7188;56.070;12.698;2023-03-03T03:57:29;23.17;;;12.23;;
14209;SDS011;7188;56.070;12.698;2023-03-03T03:59:55;20.83;;;12.33;;
14209;SDS011;7188;56.070;12.698;2023-03-03T04:02:21;20.20;;;12.47;;
14209;SDS011;7188;56.070;12.698;2023-03-03T04:04:47;22.00;;;12.60;;
14209;SDS011;7188;56.070;12.698;2023-03-03T04:07:13;23.33;;;12.70;;
14209;SDS011;7188;56.070;12.698;2023-03-03T04:09:38;22.87;;;13.97;;
14209;SDS011;7188;56.070;12.698;2023-03-03T04:12:04;19.53;;;13.13;;
14209;SDS011;7188;56.070;12.698;2023-03-03T04:14:30;26.50;;;14.43;;
14209;SDS011;7188;56.070;12.698;2023-03-03T04:16:55;23.13;;;14.67;;
14209;SDS011;7188;56.070;12.698;2023-03-03T04:19:22;26.33;;;15.70;;
14209;SDS011;7188;56.070;12.698;2023-03-03T04:21:48;20.43;;;12.40;;
14209;SDS011;7188;56.070;12.698;2023-03-03T04:24:14;24.80;;;15.37;;
14209;SDS011;7188;56.070;12.698;2023-03-03T04:26:40;27.23;;;16.10;;
14209;SDS011;7188;56.070;12.698;2023-03-03T04:29:06;24.73;;;14.63;;
14209;SDS011;7188;56.070;12.698;2023-03-03T04:31:32;31.40;;;16.03;;
14209;SDS011;7188;56.070;12.698;2023-03-03T04:33:57;28.47;;;15.27;;
14209;SDS011;7188;56.070;12.698;2023-03-03T04:36:23;21.17;;;13.20;;
14209;SDS011;7188;56.070;12.698;2023-03-03T04:38:49;26.97;;;14.27;;
14209;SDS011;7188;56.070;12.698;2023-03-03T04:41:15;30.80;;;16.70;;
14209;SDS011;7188;56.070;12.698;2023-03-03T04:43:41;29.80;;;16.00;;
14209;SDS011;7188;56.070;12.698;2023-03-03T04:46:06;31.33;;;15.73;;
14209;SDS011;7188;56.070;12.698;2023-03-03T04:48:32;30.70;;;16.97;;
14209;SDS011;7188;56.070;12.698;2023-03-03T04:50:58;25.00;;;14.57;;
14209;SDS011;7188;56.070;12.698;2023-03-03T04:53:23;29.77;;;14.77;;
14209;SDS011;7188;56.070;12.698;2023-03-03T04:55:52;26.53;;;14.60;;
14209;SDS011;7188;56.070;12.698;2023-03-03T04:58:18;28.77;;;14.67;;
14209;SDS011;7188;56.070;12.698;2023-03-03T05:00:46;25.57;;;14.37;;
14209;SDS011;7188;56.070;12.698;2023-03-03T05:03:17;33.10;;;16.60;;
14209;SDS011;7188;56.070;12.698;2023-03-03T05:05:44;34.57;;;17.40;;
14209;SDS011;7188;56.070;12.698;2023-03-03T05:08:11;35.37;;;17.20;;
14209;SDS011;7188;56.070;12.698;2023-03-03T05:10:37;28.97;;;15.37;;
14209;SDS011;7188;56.070;12.698;2023-03-03T05:13:03;28.03;;;15.13;;
14209;SDS011;7188;56.070;12.698;2023-03-03T05:15:30;32.70;;;14.93;;
14209;SDS011;7188;56.070;12.698;2023-03-03T05:17:55;25.50;;;13.10;;
14209;SDS011;7188;56.070;12.698;2023-03-03T05:20:22;34.87;;;15.63;;
14209;SDS011;7188;56.070;12.698;2023-03-03T05:22:48;32.47;;;15.37;;
14209;SDS011;7188;56.070;12.698;2023-03-03T05:25:14;30.10;;;14.20;;
14209;SDS011;7188;56.070;12.698;2023-03-03T05:27:39;31.87;;;15.63;;
14209;SDS011;7188;56.070;12.698;2023-03-03T05:30:05;32.17;;;15.00;;
14209;SDS011;7188;56.070;12.698;2023-03-03T05:32:32;30.03;;;15.77;;
14209;SDS011;7188;56.070;12.698;2023-03-03T05:34:57;36.23;;;15.73;;
14209;SDS011;7188;56.070;12.698;2023-03-03T05:37:23;29.47;;;15.03;;
14209;SDS011;7188;56.070;12.698;2023-03-03T05:39:49;38.43;;;16.40;;
14209;SDS011;7188;56.070;12.698;2023-03-03T05:42:15;39.10;;;16.77;;
14209;SDS011;7188;56.070;12.698;2023-03-03T05:44:41;40.97;;;17.87;;
14209;SDS011;7188;56.070;12.698;2023-03-03T05:47:06;33.07;;;16.97;;
14209;SDS011;7188;56.070;12.698;2023-03-03T05:49:32;40.10;;;18.50;;
14209;SDS011;7188;56.070;12.698;2023-03-03T05:51:58;47.87;;;19.53;;
14209;SDS011;7188;56.070;12.698;2023-03-03T05:54:24;37.73;;;16.43;;
14209;SDS011;7188;56.070;12.698;2023-03-03T05:56:50;40.47;;;18.77;;
14209;SDS011;7188;56.070;12.698;2023-03-03T05:59:15;50.03;;;20.43;;
14209;SDS011;7188;56.070;12.698;2023-03-03T06:01:41;48.73;;;21.73;;
14209;SDS011;7188;56.070;12.698;2023-03-03T06:04:07;46.67;;;20.10;;
14209;SDS011;7188;56.070;12.698;2023-03-03T06:06:32;44.00;;;19.40;;
14209;SDS011;7188;56.070;12.698;2023-03-03T06:08:58;41.47;;;18.73;;
14209;SDS011;7188;56.070;12.698;2023-03-03T06:11:24;47.17;;;21.20;;
14209;SDS011;7188;56.070;12.698;2023-03-03T06:13:49;44.83;;;20.67;;
14209;SDS011;7188;56.070;12.698;2023-03-03T06:16:15;48.50;;;20.37;;
14209;SDS011;7188;56.070;12.698;2023-03-03T06:18:41;49.60;;;21.40;;
14209;SDS011;7188;56.070;12.698;2023-03-03T06:21:06;45.63;;;21.33;;
14209;SDS011;7188;56.070;12.698;2023-03-03T06:23:32;49.83;;;19.87;;
14209;SDS011;7188;56.070;12.698;2023-03-03T06:25:58;46.87;;;19.70;;
14209;SDS011;7188;56.070;12.698;2023-03-03T06:28:23;46.80;;;19.50;;
14209;SDS011;7188;56.070;12.698;2023-03-03T06:30:53;40.57;;;20.00;;
14209;SDS011;7188;56.070;12.698;2023-03-03T06:33:19;39.77;;;19.37;;
14209;SDS011;7188;56.070;12.698;2023-03-03T06:35:52;47.43;;;20.93;;
14209;SDS011;7188;56.070;12.698;2023-03-03T06:38:18;48.53;;;19.63;;
14209;SDS011;7188;56.070;12.698;2023-03-03T06:40:49;50.27;;;20.53;;
14209;SDS011;7188;56.070;12.698;2023-03-03T06:43:14;39.40;;;19.10;;
14209;SDS011;7188;56.070;12.698;2023-03-03T06:45:40;48.33;;;20.33;;
14209;SDS011;7188;56.070;12.698;2023-03-03T06:48:05;40.77;;;19.17;;
14209;SDS011;7188;56.070;12.698;2023-03-03T06:50:31;44.23;;;19.33;;
14209;SDS011;7188;56.070;12.698;2023-03-03T06:55:39;41.30;;;18.80;;
14209;SDS011;7188;56.070;12.698;2023-03-03T06:58:18;62.97;;;18.97;;
14209;SDS011;7188;56.070;12.698;2023-03-03T07:00:49;41.17;;;20.03;;
14209;SDS011;7188;56.070;12.698;2023-03-03T07:03:30;44.60;;;18.73;;
14209;SDS011;7188;56.070;12.698;2023-03-03T07:05:59;39.77;;;18.70;;
14209;SDS011;7188;56.070;12.698;2023-03-03T07:08:27;44.90;;;18.77;;
14209;SDS011;7188;56.070;12.698;2023-03-03T07:10:55;40.13;;;18.53;;
14209;SDS011;7188;56.070;12.698;2023-03-03T07:13:30;45.17;;;19.43;;
14209;SDS011;7188;56.070;12.698;2023-03-03T07:16:02;45.47;;;19.40;;
14209;SDS011;7188;56.070;12.698;2023-03-03T07:18:36;35.73;;;16.17;;
14209;SDS011;7188;56.070;12.698;2023-03-03T07:24:48;35.93;;;17.63;;
14209;SDS011;7188;56.070;12.698;2023-03-03T07:29:30;33.87;;;18.07;;
14209;SDS011;7188;56.070;12.698;2023-03-03T07:31:58;31.70;;;16.43;;
14209;SDS011;7188;56.070;12.698;2023-03-03T07:37:09;41.20;;;17.33;;
14209;SDS011;7188;56.070;12.698;2023-03-03T07:39:42;34.30;;;17.23;;
14209;SDS011;7188;56.070;12.698;2023-03-03T07:42:44;39.00;;;17.40;;
14209;SDS011;7188;56.070;12.698;2023-03-03T07:45:03;35.10;;;17.73;;
14209;SDS011;7188;56.070;12.698;2023-03-03T07:50:33;46.23;;;19.37;;
14209;SDS011;7188;56.070;12.698;2023-03-03T07:52:59;35.90;;;17.60;;
14209;SDS011;7188;56.070;12.698;2023-03-03T08:03:16;38.60;;;18.70;;
14209;SDS011;7188;56.070;12.698;2023-03-03T08:05:47;45.80;;;18.27;;
14209;SDS011;7188;56.070;12.698;2023-03-03T08:08:29;39.63;;;16.93;;
14209;SDS011;7188;56.070;12.698;2023-03-03T08:11:00;36.67;;;17.60;;
14209;SDS011;7188;56.070;12.698;2023-03-03T08:16:03;39.13;;;16.33;;
14209;SDS011;7188;56.070;12.698;2023-03-03T08:18:46;35.77;;;15.63;;
14209;SDS011;7188;56.070;12.698;2023-03-03T08:21:23;35.77;;;17.30;;
14209;SDS011;7188;56.070;12.698;2023-03-03T08:23:50;37.27;;;17.73;;
14209;SDS011;7188;56.070;12.698;2023-03-03T08:26:21;43.20;;;17.30;;
14209;SDS011;7188;56.070;12.698;2023-03-03T08:28:48;25.27;;;15.30;;
14209;SDS011;7188;56.070;12.698;2023-03-03T08:31:15;54.97;;;18.83;;
14209;SDS011;7188;56.070;12.698;2023-03-03T08:33:42;43.57;;;18.50;;
14209;SDS011;7188;56.070;12.698;2023-03-03T08:36:08;48.90;;;19.00;;
14209;SDS011;7188;56.070;12.698;2023-03-03T08:38:34;31.77;;;16.07;;
14209;SDS011;7188;56.070;12.698;2023-03-03T08:41:01;51.00;;;17.87;;
14209;SDS011;7188;56.070;12.698;2023-03-03T08:43:27;127.77;;;20.83;;
14209;SDS011;7188;56.070;12.698;2023-03-03T08:45:55;42.13;;;18.47;;
14209;SDS011;7188;56.070;12.698;2023-03-03T08:48:27;44.40;;;18.00;;
14209;SDS011;7188;56.070;12.698;2023-03-03T08:50:53;36.00;;;19.53;;
14209;SDS011;7188;56.070;12.698;2023-03-03T08:53:19;32.17;;;16.63;;
14209;SDS011;7188;56.070;12.698;2023-03-03T08:55:46;35.90;;;17.90;;
14209;SDS011;7188;56.070;12.698;2023-03-03T08:58:12;25.70;;;15.97;;
14209;SDS011;7188;56.070;12.698;2023-03-03T09:00:38;35.27;;;18.00;;
14209;SDS011;7188;56.070;12.698;2023-03-03T09:03:05;29.40;;;16.63;;
14209;SDS011;7188;56.070;12.698;2023-03-03T09:05:31;29.33;;;16.10;;
14209;SDS011;7188;56.070;12.698;2023-03-03T09:07:58;28.50;;;17.13;;
14209;SDS011;7188;56.070;12.698;2023-03-03T09:10:25;32.23;;;17.17;;
14209;SDS011;7188;56.070;12.698;2023-03-03T09:12:53;37.93;;;17.30;;
14209;SDS011;7188;56.070;12.698;2023-03-03T09:17:57;38.43;;;18.67;;
14209;SDS011;7188;56.070;12.698;2023-03-03T09:22:52;31.03;;;15.47;;
14209;SDS011;7188;56.070;12.698;2023-03-03T09:25:25;40.30;;;16.70;;
14209;SDS011;7188;56.070;12.698;2023-03-03T09:28:07;36.53;;;17.97;;
14209;SDS011;7188;56.070;12.698;2023-03-03T09:30:45;32.63;;;15.40;;
14209;SDS011;7188;56.070;12.698;2023-03-03T09:33:27;37.33;;;15.33;;
14209;SDS011;7188;56.070;12.698;2023-03-03T09:36:25;33.73;;;17.43;;
14209;SDS011;7188;56.070;12.698;2023-03-03T09:38:53;30.90;;;16.77;;
14209;SDS011;7188;56.070;12.698;2023-03-03T09:44:40;37.23;;;18.20;;
14209;SDS011;7188;56.070;12.698;2023-03-03T09:56:59;38.80;;;15.43;;
14209;SDS011;7188;56.070;12.698;2023-03-03T10:05:11;24.07;;;13.60;;
14209;SDS011;7188;56.070;12.698;2023-03-03T10:10:47;25.63;;;15.37;;
14209;SDS011;7188;56.070;12.698;2023-03-03T10:24:43;22.77;;;14.27;;
14209;SDS011;7188;56.070;12.698;2023-03-03T10:33:00;26.00;;;15.50;;
14209;SDS011;7188;56.070;12.698;2023-03-03T10:44:13;23.93;;;13.47;;
14209;SDS011;7188;56.070;12.698;2023-03-03T10:47:23;25.13;;;13.70;;
14209;SDS011;7188;56.070;12.698;2023-03-03T10:52:46;20.70;;;13.07;;
14209;SDS011;7188;56.070;12.698;2023-03-03T10:58:23;19.20;;;14.33;;
14209;SDS011;7188;56.070;12.698;2023-03-03T11:06:23;19.17;;;12.90;;
14209;SDS011;7188;56.070;12.698;2023-03-03T11:22:28;14.87;;;11.07;;
14209;SDS011;7188;56.070;12.698;2023-03-03T11:33:44;13.57;;;10.03;;
14209;SDS011;7188;56.070;12.698;2023-03-03T11:36:32;15.93;;;11.07;;
14209;SDS011;7188;56.070;12.698;2023-03-03T11:39:04;10.57;;;9.17;;
14209;SDS011;7188;56.070;12.698;2023-03-03T11:41:35;15.97;;;8.07;;
14209;SDS011;7188;56.070;12.698;2023-03-03T11:46:56;14.40;;;8.20;;
14209;SDS011;7188;56.070;12.698;2023-03-03T11:52:42;9.53;;;7.27;;
14209;SDS011;7188;56.070;12.698;2023-03-03T11:55:16;9.30;;;7.23;;
14209;SDS011;7188;56.070;12.698;2023-03-03T11:57:50;9.60;;;6.80;;
14209;SDS011;7188;56.070;12.698;2023-03-03T12:05:54;7.57;;;5.53;;
14209;SDS011;7188;56.070;12.698;2023-03-03T12:11:47;7.67;;;5.73;;
14209;SDS011;7188;56.070;12.698;2023-03-03T12:19:50;6.43;;;5.70;;
14209;SDS011;7188;56.070;12.698;2023-03-03T12:25:29;6.77;;;5.87;;
14209;SDS011;7188;56.070;12.698;2023-03-03T12:33:18;5.70;;;5.10;;
14209;SDS011;7188;56.070;12.698;2023-03-03T12:46:59;3.50;;;3.20;;
14209;SDS011;7188;56.070;12.698;2023-03-03T12:52:48;4.30;;;3.90;;
14209;SDS011;7188;56.070;12.698;2023-03-03T13:03:44;4.37;;;3.97;;
14209;SDS011;7188;56.070;12.698;2023-03-03T13:06:29;3.80;;;3.50;;
14209;SDS011;7188;56.070;12.698;2023-03-03T13:15:02;3.70;;;3.40;;
14209;SDS011;7188;56.070;12.698;2023-03-03T13:17:50;4.57;;;3.90;;
14209;SDS011;7188;56.070;12.698;2023-03-03T13:20:48;4.10;;;3.63;;
14209;SDS011;7188;56.070;12.698;2023-03-03T13:31:20;3.57;;;3.20;;
14209;SDS011;7188;56.070;12.698;2023-03-03T13:33:54;3.67;;;3.37;;
14209;SDS011;7188;56.070;12.698;2023-03-03T13:36:40;5.20;;;3.83;;
14209;SDS011;7188;56.070;12.698;2023-03-03T13:39:24;3.87;;;3.57;;
14209;SDS011;7188;56.070;12.698;2023-03-03T13:45:16;4.67;;;3.40;;
14209;SDS011;7188;56.070;12.698;2023-03-03T13:50:46;3.97;;;3.63;;
14209;SDS011;7188;56.070;12.698;2023-03-03T14:07:20;6.33;;;4.67;;
14209;SDS011;7188;56.070;12.698;2023-03-03T14:10:21;4.40;;;4.00;;
14209;SDS011;7188;56.070;12.698;2023-03-03T14:12:53;3.80;;;3.40;;
14209;SDS011;7188;56.070;12.698;2023-03-03T14:21:17;7.03;;;3.53;;
14209;SDS011;7188;56.070;12.698;2023-03-03T14:23:51;5.37;;;3.03;;
14209;SDS011;7188;56.070;12.698;2023-03-03T14:26:23;3.80;;;2.47;;
14209;SDS011;7188;56.070;12.698;2023-03-03T14:28:50;6.87;;;3.03;;
14209;SDS011;7188;56.070;12.698;2023-03-03T14:31:28;7.33;;;2.43;;
14209;SDS011;7188;56.070;12.698;2023-03-03T14:36:47;6.07;;;2.87;;
14209;SDS011;7188;56.070;12.698;2023-03-03T14:39:28;4.43;;;3.10;;
14209;SDS011;7188;56.070;12.698;2023-03-03T14:47:19;4.73;;;2.80;;
14209;SDS011;7188;56.070;12.698;2023-03-03T14:49:51;4.27;;;2.63;;
14209;SDS011;7188;56.070;12.698;2023-03-03T14:54:48;5.37;;;2.73;;
14209;SDS011;7188;56.070;12.698;2023-03-03T14:57:42;5.33;;;2.67;;
14209;SDS011;7188;56.070;12.698;2023-03-03T15:02:40;5.47;;;2.70;;
14209;SDS011;7188;56.070;12.698;2023-03-03T15:05:12;9.13;;;3.07;;
14209;SDS011;7188;56.070;12.698;2023-03-03T15:07:52;10.47;;;2.77;;
14209;SDS011;7188;56.070;12.698;2023-03-03T15:10:54;4.77;;;3.07;;
14209;SDS011;7188;56.070;12.698;2023-03-03T15:16:18;4.07;;;2.33;;
14209;SDS011;7188;56.070;12.698;2023-03-03T15:21:28;7.53;;;2.27;;
14209;SDS011;7188;56.070;12.698;2023-03-03T15:26:54;6.83;;;1.90;;
14209;SDS011;7188;56.070;12.698;2023-03-03T15:29:36;3.43;;;1.83;;
14209;SDS011;7188;56.070;12.698;2023-03-03T15:32:24;5.53;;;1.90;;
14209;SDS011;7188;56.070;12.698;2023-03-03T15:41:05;10.33;;;3.80;;
14209;SDS011;7188;56.070;12.698;2023-03-03T15:52:31;8.03;;;4.03;;
14209;SDS011;7188;56.070;12.698;2023-03-03T16:00:32;9.70;;;5.97;;
14209;SDS011;7188;56.070;12.698;2023-03-03T16:03:01;12.67;;;7.00;;
14209;SDS011;7188;56.070;12.698;2023-03-03T16:05:43;8.13;;;6.40;;
14209;SDS011;7188;56.070;12.698;2023-03-03T16:08:18;9.43;;;6.90;;
14209;SDS011;7188;56.070;12.698;2023-03-03T16:11:06;10.73;;;8.20;;
14209;SDS011;7188;56.070;12.698;2023-03-03T16:13:57;12.63;;;7.43;;
14209;SDS011;7188;56.070;12.698;2023-03-03T16:19:45;9.30;;;5.77;;
14209;SDS011;7188;56.070;12.698;2023-03-03T16:38:50;14.40;;;5.47;;
14209;SDS011;7188;56.070;12.698;2023-03-03T16:42:27;9.70;;;4.73;;
14209;SDS011;7188;56.070;12.698;2023-03-03T16:58:49;9.47;;;3.63;;
14209;SDS011;7188;56.070;12.698;2023-03-03T17:06:42;9.50;;;3.70;;
14209;SDS011;7188;56.070;12.698;2023-03-03T17:09:41;7.33;;;3.37;;
14209;SDS011;7188;56.070;12.698;2023-03-03T17:12:33;7.17;;;3.63;;
14209;SDS011;7188;56.070;12.698;2023-03-03T17:17:50;7.53;;;3.33;;
14209;SDS011;7188;56.070;12.698;2023-03-03T17:20:36;8.83;;;3.50;;
14209;SDS011;7188;56.070;12.698;2023-03-03T17:26:13;6.47;;;3.37;;
14209;SDS011;7188;56.070;12.698;2023-03-03T17:35:04;6.10;;;3.10;;
14209;SDS011;7188;56.070;12.698;2023-03-03T17:45:15;7.17;;;3.37;;
14209;SDS011;7188;56.070;12.698;2023-03-03T17:47:49;7.70;;;2.80;;
14209;SDS011;7188;56.070;12.698;2023-03-03T18:04:40;5.40;;;1.73;;
14209;SDS011;7188;56.070;12.698;2023-03-03T18:18:43;7.77;;;1.90;;
14209;SDS011;7188;56.070;12.698;2023-03-03T18:26:49;14.23;;;2.03;;
14209;SDS011;7188;56.070;12.698;2023-03-03T18:31:59;12.43;;;2.37;;
14209;SDS011;7188;56.070;12.698;2023-03-03T18:34:41;8.67;;;1.93;;
14209;SDS011;7188;56.070;12.698;2023-03-03T18:37:33;13.90;;;2.67;;
14209;SDS011;7188;56.070;12.698;2023-03-03T18:40:19;15.33;;;2.87;;
14209;SDS011;7188;56.070;12.698;2023-03-03T18:59:48;16.63;;;2.57;;
14209;SDS011;7188;56.070;12.698;2023-03-03T19:04:54;24.30;;;3.93;;
14209;SDS011;7188;56.070;12.698;2023-03-03T19:18:57;22.70;;;3.43;;
14209;SDS011;7188;56.070;12.698;2023-03-03T19:21:31;20.07;;;3.77;;
14209;SDS011;7188;56.070;12.698;2023-03-03T19:24:04;18.33;;;4.33;;
14209;SDS011;7188;56.070;12.698;2023-03-03T19:26:57;25.30;;;3.43;;
14209;SDS011;7188;56.070;12.698;2023-03-03T19:32:58;21.67;;;3.20;;
14209;SDS011;7188;56.070;12.698;2023-03-03T19:55:10;20.53;;;3.60;;
14209;SDS011;7188;56.070;12.698;2023-03-03T20:08:57;27.33;;;4.33;;
14209;SDS011;7188;56.070;12.698;2023-03-03T20:26:41;28.60;;;4.37;;
14209;SDS011;7188;56.070;12.698;2023-03-03T20:37:12;28.87;;;3.33;;
14209;SDS011;7188;56.070;12.698;2023-03-03T20:42:59;22.20;;;3.33;;
14209;SDS011;7188;56.070;12.698;2023-03-03T20:50:57;21.57;;;2.97;;
14209;SDS011;7188;56.070;12.698;2023-03-03T20:56:23;22.67;;;4.60;;
14209;SDS011;7188;56.070;12.698;2023-03-03T21:01:52;23.70;;;3.47;;
14209;SDS011;7188;56.070;12.698;2023-03-03T21:05:12;18.17;;;3.30;;
14209;SDS011;7188;56.070;12.698;2023-03-03T21:08:03;18.93;;;2.97;;
14209;SDS011;7188;56.070;12.698;2023-03-03T21:10:33;16.27;;;3.00;;
14209;SDS011;7188;56.070;12.698;2023-03-03T21:16:09;20.70;;;3.10;;
14209;SDS011;7188;56.070;12.698;2023-03-03T21:18:38;22.23;;;3.20;;
14209;SDS011;7188;56.070;12.698;2023-03-03T21:21:04;17.33;;;3.17;;
14209;SDS011;7188;56.070;12.698;2023-03-03T21:23:32;22.97;;;3.57;;
14209;SDS011;7188;56.070;12.698;2023-03-03T21:25:57;18.37;;;2.70;;
14209;SDS011;7188;56.070;12.698;2023-03-03T21:28:24;16.73;;;3.50;;
14209;SDS011;7188;56.070;12.698;2023-03-03T21:33:47;18.33;;;3.63;;
14209;SDS011;7188;56.070;12.698;2023-03-03T21:36:14;25.27;;;3.67;;
14209;SDS011;7188;56.070;12.698;2023-03-03T21:38:41;24.30;;;3.30;;
14209;SDS011;7188;56.070;12.698;2023-03-03T21:41:08;19.47;;;3.97;;
14209;SDS011;7188;56.070;12.698;2023-03-03T21:43:44;18.53;;;3.13;;
14209;SDS011;7188;56.070;12.698;2023-03-03T21:46:12;27.90;;;3.90;;
14209;SDS011;7188;56.070;12.698;2023-03-03T21:48:41;18.60;;;3.40;;
14209;SDS011;7188;56.070;12.698;2023-03-03T21:51:08;26.47;;;3.60;;
14209;SDS011;7188;56.070;12.698;2023-03-03T21:53:38;23.33;;;2.83;;
14209;SDS011;7188;56.070;12.698;2023-03-03T21:56:05;23.20;;;3.23;;
14209;SDS011;7188;56.070;12.698;2023-03-03T21:58:31;18.40;;;3.33;;
14209;SDS011;7188;56.070;12.698;2023-03-03T22:00:56;21.70;;;3.03;;
14209;SDS011;7188;56.070;12.698;2023-03-03T22:03:22;19.20;;;3.23;;
14209;SDS011;7188;56.070;12.698;2023-03-03T22:05:50;18.43;;;3.83;;
14209;SDS011;7188;56.070;12.698;2023-03-03T22:08:17;16.87;;;2.73;;
14209;SDS011;7188;56.070;12.698;2023-03-03T22:10:46;17.07;;;2.67;;
14209;SDS011;7188;56.070;12.698;2023-03-03T22:13:20;21.93;;;3.47;;
14209;SDS011;7188;56.070;12.698;2023-03-03T22:15:46;26.17;;;3.43;;
14209;SDS011;7188;56.070;12.698;2023-03-03T22:18:12;21.97;;;3.20;;
14209;SDS011;7188;56.070;12.698;2023-03-03T22:20:39;23.23;;;3.90;;
14209;SDS011;7188;56.070;12.698;2023-03-03T22:23:05;18.57;;;3.13;;
14209;SDS011;7188;56.070;12.698;2023-03-03T22:25:31;24.50;;;3.67;;
14209;SDS011;7188;56.070;12.698;2023-03-03T22:27:56;27.87;;;3.37;;
14209;SDS011;7188;56.070;12.698;2023-03-03T22:30:22;20.67;;;4.53;;
14209;SDS011;7188;56.070;12.698;2023-03-03T22:32:47;22.30;;;3.20;;
14209;SDS011;7188;56.070;12.698;2023-03-03T22:35:16;29.73;;;3.43;;
14209;SDS011;7188;56.070;12.698;2023-03-03T22:37:42;13.47;;;2.47;;
14209;SDS011;7188;56.070;12.698;2023-03-03T22:40:08;24.23;;;3.67;;